Lake Ozette, Washington
Current Conditions -  °F | °C
As of 10:53 AM on Friday 24 Oct 2014 (Local Time) from KUIL Reporting Station
Clear Clear  
Wind Chill: 50°   Ceiling: Unl
Heat Index: 50°   Visibility: 7mi
Dew Point: 47°   Wind: 7mph
Humidity: 89%   Direction: 80°E
Pressure: 29.99"   Gusts: NA
Location:  48.1788°N, 124.127°W
Report Text: KUIL 241753Z AUTO 08006KT 7SM CLR 10/08 A2999 RMK AO2 SLP156 T01000083 10100 20061 50001
Loading
Personal Weather Stations






























Interactive Weather Map
Tropical Storm Tracking
New forecast layout! Learn more

10-Day Weather Forecast

Advertisements
Track Severe Weather on mobile